Time;durP1;ratioP1;P1;durP2;ratioP2;P2;SDS_P1;SDS_P2;PMS_P1;PMS_P2;Temp;Humidity;BMP_temperature;BMP_pressure;BME280_temperature;BME280_humidity;BME280_pressure;Samples;Min_cycle;Max_cycle;Signal;HPM_P1;HPM_P2
2021/01/26 00:01:21;;;;;;;3.70;1.10;;;3.30;96.50;;;;;;5074812;28;20111;-80
2021/01/26 00:03:47;;;;;;;4.03;0.87;;;3.30;96.50;;;;;;5074845;28;20033;-80
2021/01/26 00:06:13;;;;;;;3.13;0.80;;;3.30;96.40;;;;;;5075898;28;20078;-79
2021/01/26 00:08:39;;;;;;;6.73;1.13;;;3.30;96.40;;;;;;5074763;28;20055;-79
2021/01/26 00:11:05;;;;;;;4.70;1.10;;;3.30;96.40;;;;;;5057456;28;20029;-79
2021/01/26 00:13:32;;;;;;;7.37;1.20;;;3.30;96.40;;;;;;5074312;28;20032;-85
2021/01/26 00:15:58;;;;;;;2.67;0.80;;;3.30;96.40;;;;;;5094552;28;20028;-80
2021/01/26 00:18:24;;;;;;;8.13;0.80;;;3.40;96.40;;;;;;5077584;28;20063;-80
2021/01/26 00:20:50;;;;;;;2.70;0.87;;;3.40;96.30;;;;;;5077815;28;20059;-80
2021/01/26 00:23:16;;;;;;;7.23;0.90;;;3.40;96.30;;;;;;5077740;28;20115;-80
2021/01/26 00:25:43;;;;;;;4.37;0.90;;;3.40;96.40;;;;;;5095888;28;20036;-82
2021/01/26 00:28:11;;;;;;;6.37;1.13;;;3.40;96.40;;;;;;5094449;28;20023;-78
2021/01/26 00:30:38;;;;;;;5.93;1.47;;;3.40;96.30;;;;;;5095843;28;20344;-79
2021/01/26 00:33:08;;;;;;;3.70;1.03;;;3.40;96.30;;;;;;5094373;28;20020;-83
2021/01/26 00:35:34;;;;;;;10.13;1.43;;;3.40;96.30;;;;;;5095651;28;20397;-81
2021/01/26 00:38:00;;;;;;;6.40;2.00;;;3.50;96.40;;;;;;5094339;28;20036;-79
2021/01/26 00:40:28;;;;;;;5.23;1.27;;;3.50;96.30;;;;;;5094401;28;20102;-79
2021/01/26 00:42:53;;;;;;;5.17;1.20;;;3.50;96.30;;;;;;5094362;28;20021;-79
2021/01/26 00:45:21;;;;;;;7.77;1.77;;;3.50;96.30;;;;;;5095291;28;20024;-80
2021/01/26 00:47:47;;;;;;;5.67;1.20;;;3.50;96.30;;;;;;5095424;28;20119;-80
2021/01/26 00:50:14;;;;;;;5.73;1.30;;;3.40;96.10;;;;;;5095371;28;20099;-83
2021/01/26 00:52:39;;;;;;;4.73;1.30;;;3.40;96.10;;;;;;5094024;28;20024;-79
2021/01/26 00:55:07;;;;;;;3.20;1.10;;;3.40;96.00;;;;;;5093965;28;20041;-79
2021/01/26 00:57:33;;;;;;;3.00;0.80;;;3.30;95.90;;;;;;5094046;28;20375;-79
2021/01/26 00:59:58;;;;;;;4.67;1.10;;;3.30;95.90;;;;;;5095230;28;20035;-79
2021/01/26 01:02:24;;;;;;;3.63;0.80;;;3.30;95.80;;;;;;5077025;28;20206;-79
2021/01/26 01:04:50;;;;;;;1.83;0.60;;;3.30;95.70;;;;;;5094011;28;20060;-79
2021/01/26 01:07:16;;;;;;;2.40;0.70;;;3.20;95.60;;;;;;5093991;28;20534;-79
2021/01/26 01:09:43;;;;;;;5.00;0.70;;;3.20;95.60;;;;;;5076988;28;20016;-80
2021/01/26 01:12:09;;;;;;;9.20;1.00;;;3.10;95.60;;;;;;5094966;28;20471;-80
2021/01/26 01:14:37;;;;;;;8.30;1.23;;;3.10;95.70;;;;;;5076961;28;20085;-81
2021/01/26 01:17:03;;;;;;;10.73;1.63;;;3.20;95.90;;;;;;5093615;28;20028;-79
2021/01/26 01:19:28;;;;;;;8.63;1.33;;;3.20;96.00;;;;;;5094855;28;20431;-82
2021/01/26 01:21:54;;;;;;;12.17;2.10;;;3.20;96.10;;;;;;5076583;28;20085;-82
2021/01/26 01:24:20;;;;;;;9.93;2.27;;;3.30;96.20;;;;;;5059930;28;20166;-84
2021/01/26 01:26:45;;;;;;;11.00;2.63;;;3.30;96.20;;;;;;5092401;28;20111;-80
2021/01/26 01:29:12;;;;;;;9.63;2.37;;;3.40;96.20;;;;;;5094610;28;20032;-81
2021/01/26 01:31:38;;;;;;;6.13;1.73;;;3.40;96.20;;;;;;5093292;28;20019;-79
2021/01/26 01:34:06;;;;;;;8.10;2.23;;;3.40;96.10;;;;;;5094523;28;20367;-79
2021/01/26 01:36:33;;;;;;;11.57;2.47;;;3.40;96.00;;;;;;5094552;28;20039;-75
2021/01/26 01:38:58;;;;;;;5.37;1.63;;;3.40;96.10;;;;;;5093203;28;20100;-74
2021/01/26 01:41:30;;;;;;;13.20;3.37;;;3.40;96.10;;;;;;5085213;28;20055;-74
2021/01/26 01:43:55;;;;;;;6.33;1.63;;;3.40;96.10;;;;;;5093176;28;20035;-74
2021/01/26 01:46:22;;;;;;;7.10;1.43;;;3.50;96.10;;;;;;5059226;28;20024;-74
2021/01/26 01:48:48;;;;;;;9.53;1.23;;;3.40;96.00;;;;;;5094413;28;20539;-77
2021/01/26 01:51:18;;;;;;;6.93;1.23;;;3.50;96.00;;;;;;5094839;28;20020;-75
2021/01/26 01:53:53;;;;;;;12.13;1.83;;;3.50;96.00;;;;;;5093175;28;20020;-76
2021/01/26 01:56:26;;;;;;;8.27;1.10;;;3.50;96.00;;;;;;5092957;28;20028;-75
2021/01/26 01:59:17;;;;;;;10.43;0.82;;;3.60;96.00;;;;;;5094542;28;20028;-74
2021/01/26 02:01:43;;;;;;;5.90;0.90;;;3.60;96.00;;;;;;5094424;28;20020;-74
2021/01/26 02:04:13;;;;;;;9.10;1.40;;;3.50;96.00;;;;;;5076250;28;20024;-74
2021/01/26 02:06:41;;;;;;;6.60;1.37;;;3.50;95.90;;;;;;5092670;28;20081;-74
2021/01/26 02:09:18;;;;;;;7.07;1.00;;;3.50;95.80;;;;;;5092632;28;20065;-74
2021/01/26 02:11:47;;;;;;;9.00;0.97;;;3.50;95.80;;;;;;5092667;28;20456;-75
2021/01/26 02:14:13;;;;;;;6.67;0.80;;;3.40;95.80;;;;;;5076243;28;20024;-74
2021/01/26 02:16:54;;;;;;;5.07;1.00;;;3.40;95.70;;;;;;5092796;28;20028;-74
2021/01/26 02:19:57;;;;;;;6.10;1.10;;;3.40;95.80;;;;;;5093939;28;20424;-74
2021/01/26 02:22:48;;;;;;;5.73;1.50;;;3.40;95.80;;;;;;5093807;28;20142;-75
2021/01/26 02:25:47;;;;;;;3.57;0.70;;;3.50;95.90;;;;;;5093936;28;20024;-76
2021/01/26 02:28:35;;;;;;;11.40;1.27;;;3.50;95.90;;;;;;5093666;28;20031;-74
2021/01/26 02:31:40;;;;;;;6.20;1.00;;;3.40;95.70;;;;;;5092366;28;20027;-75
2021/01/26 02:34:09;;;;;;;7.40;1.00;;;3.40;95.70;;;;;;5073295;28;20040;-74
2021/01/26 02:37:12;;;;;;;5.53;1.00;;;3.40;95.70;;;;;;5092198;28;20024;-75
2021/01/26 02:39:57;;;;;;;7.40;1.33;;;3.30;95.60;;;;;;5093815;28;20095;-75
2021/01/26 02:42:34;;;;;;;4.93;0.93;;;3.30;95.60;;;;;;5092636;28;20448;-76
2021/01/26 02:45:22;;;;;;;2.00;0.70;;;3.30;95.70;;;;;;5092201;28;20016;-75
2021/01/26 02:48:22;;;;;;;5.00;1.20;;;3.30;95.70;;;;;;5093199;28;20082;-74
2021/01/26 02:51:09;;;;;;;4.67;0.70;;;3.30;95.80;;;;;;5092040;28;20066;-75
2021/01/26 02:53:52;;;;;;;4.93;0.70;;;3.30;95.80;;;;;;5092419;28;20039;-74
2021/01/26 02:56:44;;;;;;;4.90;0.50;;;3.30;95.70;;;;;;5093635;28;20122;-74
2021/01/26 02:59:12;;;;;;;5.13;0.70;;;3.40;95.70;;;;;;5093474;28;20028;-74
2021/01/26 03:01:48;;;;;;;3.63;0.70;;;3.30;95.60;;;;;;5092222;28;20032;-75
2021/01/26 03:04:21;;;;;;;3.47;0.60;;;3.30;95.60;;;;;;5093224;28;20046;-74
2021/01/26 03:06:51;;;;;;;2.88;0.70;;;3.30;95.60;;;;;;5093462;28;20466;-74
2021/01/26 03:09:23;;;;;;;1.83;0.40;;;3.30;95.60;;;;;;5092100;28;20024;-75
2021/01/26 03:12:03;;;;;;;2.30;0.40;;;3.30;95.50;;;;;;5092305;28;20379;-74
2021/01/26 03:14:46;;;;;;;3.23;0.60;;;3.30;95.50;;;;;;5092300;28;20417;-75
2021/01/26 03:17:14;;;;;;;3.73;0.40;;;3.30;95.60;;;;;;5093269;28;20020;-73
2021/01/26 03:19:45;;;;;;;5.90;0.50;;;3.30;95.60;;;;;;5093437;28;20024;-74
2021/01/26 03:22:13;;;;;;;2.30;0.50;;;3.40;95.70;;;;;;5093207;28;20031;-77
2021/01/26 03:24:40;;;;;;;8.70;0.77;;;3.40;95.70;;;;;;5092351;28;20513;-77
2021/01/26 03:27:10;;;;;;;6.30;0.70;;;3.40;95.80;;;;;;5092208;28;20538;-74
2021/01/26 03:29:40;;;;;;;6.87;0.50;;;3.40;95.80;;;;;;5092154;28;20050;-74
2021/01/26 03:32:12;;;;;;;5.70;0.70;;;3.50;95.80;;;;;;5091724;28;20012;-75
2021/01/26 03:34:38;;;;;;;5.83;0.60;;;3.50;95.80;;;;;;5091743;28;20020;-76
2021/01/26 03:37:05;;;;;;;8.07;0.80;;;3.50;95.80;;;;;;5075062;28;20499;-75
2021/01/26 03:39:30;;;;;;;4.07;0.50;;;3.60;95.80;;;;;;5093161;28;20105;-74
2021/01/26 03:41:57;;;;;;;3.97;0.40;;;3.50;95.60;;;;;;5074902;28;20474;-82
2021/01/26 03:44:22;;;;;;;2.00;0.40;;;3.50;95.50;;;;;;5092096;28;20484;-79
2021/01/26 03:46:48;;;;;;;1.63;0.43;;;3.50;95.50;;;;;;5074732;28;20044;-79
2021/01/26 03:49:45;;;;;;;6.43;0.60;;;3.50;95.40;;;;;;5092904;28;20069;-79
2021/01/26 03:52:47;;;;;;;4.10;0.40;;;3.40;95.40;;;;;;5087155;28;20070;-79
2021/01/26 03:55:35;;;;;;;3.03;0.40;;;3.40;95.30;;;;;;5096778;28;20116;-80
2021/01/26 03:58:10;;;;;;;1.97;0.50;;;3.40;95.40;;;;;;5096278;28;20027;-80
2021/01/26 04:00:49;;;;;;;2.80;0.40;;;3.30;95.30;;;;;;5095029;28;20024;-80
2021/01/26 04:03:15;;;;;;;1.37;0.20;;;3.30;95.30;;;;;;5096418;28;20028;-82
2021/01/26 04:05:56;;;;;;;3.00;0.40;;;3.30;95.40;;;;;;5095178;28;20437;-81
2021/01/26 04:08:47;;;;;;;8.43;0.67;;;3.40;95.50;;;;;;5095314;28;20111;-81
2021/01/26 04:11:38;;;;;;;2.17;0.33;;;3.40;95.60;;;;;;5096377;28;20153;-80
2021/01/26 04:14:14;;;;;;;3.90;0.50;;;3.50;95.60;;;;;;5096389;28;20035;-80
2021/01/26 04:16:50;;;;;;;3.03;0.40;;;3.50;95.60;;;;;;5096624;28;20032;-81
2021/01/26 04:19:21;;;;;;;3.47;0.50;;;3.50;95.60;;;;;;5095042;28;20028;-80
2021/01/26 04:21:48;;;;;;;5.27;0.50;;;3.50;95.60;;;;;;5096264;28;20024;-79
2021/01/26 04:24:14;;;;;;;3.50;0.47;;;3.50;95.60;;;;;;5096300;28;20107;-79
2021/01/26 04:26:40;;;;;;;4.47;0.67;;;3.60;95.60;;;;;;5096100;28;20036;-84
2021/01/26 04:29:06;;;;;;;8.33;0.67;;;3.60;95.60;;;;;;5076827;28;20024;-81
2021/01/26 04:31:31;;;;;;;6.13;0.70;;;3.60;95.60;;;;;;5076812;28;20036;-80
2021/01/26 04:33:57;;;;;;;8.67;0.93;;;3.70;95.70;;;;;;5094537;28;20115;-80
2021/01/26 04:36:24;;;;;;;3.80;0.40;;;3.70;95.70;;;;;;5095388;28;20099;-80
2021/01/26 04:38:50;;;;;;;6.57;0.63;;;3.70;95.60;;;;;;5095903;28;20035;-80
2021/01/26 04:41:31;;;;;;;4.40;0.60;;;3.80;95.70;;;;;;5094678;28;20419;-80
2021/01/26 04:44:15;;;;;;;12.27;0.80;;;3.80;95.60;;;;;;5095724;28;20019;-79
2021/01/26 04:46:47;;;;;;;5.60;0.60;;;3.80;95.70;;;;;;5095515;28;20090;-80
2021/01/26 04:49:40;;;;;;;10.20;0.70;;;3.80;95.60;;;;;;5095685;28;20020;-80
2021/01/26 04:52:16;;;;;;;8.67;0.60;;;3.80;95.60;;;;;;5095510;28;20118;-79
2021/01/26 04:54:54;;;;;;;5.83;0.70;;;3.90;95.60;;;;;;5094219;28;20382;-79
2021/01/26 04:57:39;;;;;;;3.90;0.60;;;3.90;95.50;;;;;;5095403;28;20028;-79
2021/01/26 05:00:13;;;;;;;6.47;1.27;;;3.90;95.60;;;;;;5095286;28;20024;-79
2021/01/26 05:02:57;;;;;;;;;;;4.00;95.60;;;;;;5093390;28;20040;-82
2021/01/26 05:05:25;;;;;;;5.57;0.50;;;4.00;95.60;;;;;;5093055;28;19910;-75
2021/01/26 05:07:56;;;;;;;4.73;0.60;;;4.00;95.80;;;;;;5093475;28;20267;-74
2021/01/26 05:10:30;;;;;;;5.03;0.57;;;4.00;95.40;;;;;;5094931;28;20072;-74
2021/01/26 05:13:16;;;;;;;;;;;4.00;95.40;;;;;;5094183;28;20027;-75
2021/01/26 05:15:46;;;;;;;4.20;0.50;;;4.00;95.40;;;;;;5086228;28;20323;-75
2021/01/26 05:18:23;;;;;;;6.33;0.50;;;3.90;95.30;;;;;;5093606;28;20020;-76
2021/01/26 05:20:55;;;;;;;5.33;0.70;;;3.90;95.30;;;;;;5093357;28;20076;-74
2021/01/26 05:23:27;;;;;;;7.50;0.60;;;3.90;95.30;;;;;;5094810;28;20103;-74
2021/01/26 05:25:54;;;;;;;2.63;0.60;;;3.80;95.40;;;;;;5094687;28;20035;-74
2021/01/26 05:28:20;;;;;;;6.23;0.80;;;3.90;95.40;;;;;;5076526;28;20029;-74
2021/01/26 05:30:54;;;;;;;6.33;0.87;;;3.90;95.40;;;;;;5093386;28;20093;-74
2021/01/26 05:33:20;;;;;;;;;;;3.90;95.50;;;;;;5093489;28;20016;-74
2021/01/26 05:35:52;;;;;;;4.47;0.70;;;3.90;95.50;;;;;;5094422;28;19918;-76
2021/01/26 05:38:18;;;;;;;9.23;1.07;;;4.00;95.50;;;;;;5094383;28;20035;-74
2021/01/26 05:40:53;;;;;;;3.70;0.70;;;4.00;95.50;;;;;;5076727;28;20042;-76
2021/01/26 05:43:23;;;;;;;9.60;0.80;;;4.00;95.50;;;;;;5094369;28;20048;-75
2021/01/26 05:45:54;;;;;;;7.97;0.73;;;4.10;95.60;;;;;;5092853;28;20043;-75
2021/01/26 05:48:23;;;;;;;7.17;1.13;;;4.10;95.50;;;;;;5092847;28;20050;-73
2021/01/26 05:50:50;;;;;;;6.80;0.67;;;4.10;95.50;;;;;;5076292;28;20391;-74
2021/01/26 05:53:17;;;;;;;4.40;0.53;;;4.10;95.50;;;;;;5094275;28;20526;-75
2021/01/26 05:55:57;;;;;;;4.73;0.60;;;4.10;95.50;;;;;;5092860;28;20023;-74
2021/01/26 05:58:27;;;;;;;2.90;0.60;;;4.10;95.40;;;;;;5094164;28;20027;-74
2021/01/26 06:01:01;;;;;;;5.00;0.60;;;4.10;95.40;;;;;;5086983;28;20025;-75
2021/01/26 06:03:29;;;;;;;;;;;4.10;95.40;;;;;;5072613;28;20052;-74
2021/01/26 06:06:14;;;;;;;7.27;0.50;;;4.10;95.40;;;;;;5072230;28;19923;-74
2021/01/26 06:08:51;;;;;;;3.43;0.60;;;4.10;95.40;;;;;;5072352;28;20021;-75
2021/01/26 06:11:24;;;;;;;5.87;0.73;;;4.10;95.40;;;;;;5073314;28;20342;-75
2021/01/26 06:13:50;;;;;;;4.20;0.50;;;4.10;95.40;;;;;;5072007;28;20027;-74
2021/01/26 06:16:23;;;;;;;5.97;0.60;;;4.10;95.30;;;;;;5055496;28;20028;-74
2021/01/26 06:19:01;;;;;;;3.20;0.40;;;4.10;95.40;;;;;;5073473;28;20086;-74
2021/01/26 06:21:29;;;;;;;3.87;0.40;;;4.10;95.30;;;;;;5073287;28;20032;-74
2021/01/26 06:23:57;;;;;;;5.90;0.73;;;4.10;95.30;;;;;;5072989;28;20453;-75
2021/01/26 06:26:31;;;;;;;5.73;0.57;;;4.10;95.40;;;;;;5072826;28;20041;-74
2021/01/26 06:29:12;;;;;;;6.80;0.50;;;4.10;95.40;;;;;;5070336;28;20024;-75
2021/01/26 06:31:57;;;;;;;5.83;0.50;;;4.10;95.40;;;;;;5072073;28;20112;-74
2021/01/26 06:34:44;;;;;;;3.80;0.40;;;4.20;95.40;;;;;;5083521;28;20020;-74
2021/01/26 06:37:30;;;;;;;3.53;0.50;;;4.10;95.60;;;;;;5083191;28;20036;-74
2021/01/26 06:40:02;;;;;;;6.20;1.43;;;4.10;95.30;;;;;;5083650;28;20452;-73
2021/01/26 06:42:42;;;;;;;4.00;0.47;;;4.10;95.30;;;;;;5077052;28;20091;-73
2021/01/26 06:45:34;;;;;;;2.07;0.40;;;4.20;95.40;;;;;;5081952;28;20032;-74
2021/01/26 06:48:30;;;;;;;2.50;0.30;;;4.20;95.30;;;;;;5082918;28;20041;-74
2021/01/26 06:50:59;;;;;;;5.20;0.60;;;4.20;95.30;;;;;;5083037;28;20043;-75
2021/01/26 06:53:40;;;;;;;2.13;0.40;;;4.20;95.30;;;;;;5082770;28;20066;-75
2021/01/26 06:56:51;;;;;;;2.00;0.43;;;4.20;95.30;;;;;;5071758;28;20028;-74
2021/01/26 06:59:30;;;;;;;2.47;0.30;;;4.20;95.30;;;;;;5071678;28;20029;-74
2021/01/26 07:02:29;;;;;;;4.23;0.40;;;4.20;95.30;;;;;;5073033;28;20536;-74
2021/01/26 07:05:21;;;;;;;4.10;0.47;;;4.20;95.30;;;;;;5077316;28;20028;-79
2021/01/26 07:08:28;;;;;;;3.50;0.60;;;4.30;95.30;;;;;;5079607;28;20048;-79
2021/01/26 07:11:31;;;;;;;5.00;0.70;;;4.20;95.30;;;;;;5093842;28;20024;-80
2021/01/26 07:14:11;;;;;;;3.20;0.40;;;4.20;95.30;;;;;;5072891;28;20036;-79
2021/01/26 07:16:45;;;;;;;5.03;0.60;;;4.20;95.30;;;;;;5072917;28;20082;-78
2021/01/26 07:19:37;;;;;;;3.20;0.77;;;4.20;95.30;;;;;;5073053;28;20024;-78
2021/01/26 07:22:08;;;;;;;3.77;0.60;;;4.30;95.30;;;;;;5073068;28;20024;-79
2021/01/26 07:24:37;;;;;;;2.70;0.50;;;4.20;95.30;;;;;;5075938;28;20507;-78
2021/01/26 07:27:24;;;;;;;5.30;0.60;;;4.30;95.30;;;;;;5075230;28;20028;-79
2021/01/26 07:29:50;;;;;;;3.47;0.60;;;4.20;95.30;;;;;;5076547;28;20495;-79
2021/01/26 07:32:41;;;;;;;2.47;0.43;;;4.20;95.30;;;;;;5076471;28;20017;-78
2021/01/26 07:35:45;;;;;;;1.53;0.40;;;4.30;95.30;;;;;;5079008;28;20028;-79
2021/01/26 07:38:32;;;;;;;3.30;0.40;;;4.20;95.20;;;;;;5075407;28;20124;-78
2021/01/26 07:41:35;;;;;;;4.80;0.50;;;4.20;95.10;;;;;;5075104;28;20023;-78
2021/01/26 07:44:29;;;;;;;1.60;0.30;;;4.20;95.10;;;;;;5076602;28;20538;-77
2021/01/26 07:47:07;;;;;;;3.07;0.43;;;4.20;95.10;;;;;;5076334;28;20028;-78
2021/01/26 07:49:55;;;;;;;3.10;0.53;;;4.20;95.20;;;;;;5080031;28;20020;-78
2021/01/26 07:52:22;;;;;;;2.93;0.40;;;4.20;95.20;;;;;;5096623;28;20020;-79
2021/01/26 07:55:02;;;;;;;2.13;0.43;;;4.20;95.20;;;;;;5096535;28;20056;-78
2021/01/26 07:57:47;;;;;;;2.07;0.50;;;4.30;95.20;;;;;;5096295;28;20024;-78
2021/01/26 08:00:15;;;;;;;0.95;0.30;;;4.30;95.20;;;;;;5096880;28;20024;-79
2021/01/26 08:02:49;;;;;;;3.27;0.40;;;4.40;95.20;;;;;;5078697;28;20064;-78
2021/01/26 08:05:17;;;;;;;;;;;4.30;95.20;;;;;;5095441;28;20108;-79
2021/01/26 08:07:44;;;;;;;3.13;0.43;;;4.30;95.50;;;;;;5095154;28;20007;-80
2021/01/26 08:10:22;;;;;;;1.93;0.40;;;4.30;95.10;;;;;;5078364;28;20050;-80
2021/01/26 08:12:49;;;;;;;2.63;0.40;;;4.30;95.10;;;;;;5095159;28;20542;-79
2021/01/26 08:15:38;;;;;;;3.30;0.70;;;4.30;95.10;;;;;;5095492;28;20468;-80
2021/01/26 08:18:19;;;;;;;2.50;0.50;;;4.30;95.10;;;;;;5096578;28;20028;-80
2021/01/26 08:20:44;;;;;;;1.97;0.50;;;4.30;95.10;;;;;;5078353;28;20103;-80
2021/01/26 08:23:19;;;;;;;6.87;0.60;;;4.30;95.00;;;;;;5074669;28;20526;-79
2021/01/26 08:25:47;;;;;;;1.73;0.40;;;4.30;95.00;;;;;;5075838;28;20108;-80
2021/01/26 08:28:40;;;;;;;2.63;0.40;;;4.30;95.30;;;;;;5075616;28;20445;-79
2021/01/26 08:31:38;;;;;;;4.20;1.00;;;4.30;95.00;;;;;;5075659;28;20099;-80
2021/01/26 08:34:25;;;;;;;3.60;0.40;;;4.30;95.00;;;;;;5075314;28;20036;-79
2021/01/26 08:37:09;;;;;;;2.17;0.60;;;4.30;95.00;;;;;;5090553;28;20533;-80
2021/01/26 08:39:48;;;;;;;3.38;0.40;;;4.30;95.00;;;;;;5090964;28;20033;-79
2021/01/26 08:42:44;;;;;;;2.37;0.60;;;4.30;95.10;;;;;;5091083;28;20032;-80
2021/01/26 08:45:25;;;;;;;2.83;0.50;;;4.40;95.20;;;;;;5073642;28;20028;-79
2021/01/26 08:48:19;;;;;;;3.17;0.40;;;4.40;95.20;;;;;;5090663;28;20048;-79
2021/01/26 08:50:51;;;;;;;3.10;0.40;;;4.50;95.30;;;;;;5075239;28;20020;-78
2021/01/26 08:53:22;;;;;;;2.03;0.30;;;4.50;95.20;;;;;;5075239;28;20085;-76
2021/01/26 08:55:53;;;;;;;3.93;0.60;;;4.60;95.20;;;;;;5075049;28;20029;-76
2021/01/26 08:58:48;;;;;;;5.23;0.60;;;4.60;95.20;;;;;;5090631;28;20036;-79
2021/01/26 09:01:22;;;;;;;2.13;0.50;;;4.70;95.30;;;;;;5090603;28;20055;-79
2021/01/26 09:04:13;;;;;;;4.70;0.80;;;4.80;95.30;;;;;;5075069;28;20491;-80
2021/01/26 09:06:39;;;;;;;6.07;0.53;;;4.80;95.30;;;;;;5074921;28;20025;-79
2021/01/26 09:09:08;;;;;;;2.50;0.40;;;4.90;95.40;;;;;;5090717;28;20408;-79
2021/01/26 09:11:48;;;;;;;4.67;0.53;;;4.90;95.40;;;;;;5074860;28;20070;-77
2021/01/26 09:14:27;;;;;;;3.00;0.60;;;5.00;95.40;;;;;;5074853;28;20020;-78
2021/01/26 09:17:18;;;;;;;3.87;0.53;;;5.10;95.40;;;;;;5074792;28;20050;-77
2021/01/26 09:19:55;;;;;;;6.60;0.40;;;5.20;95.40;;;;;;5074715;28;20078;-77
2021/01/26 09:22:28;;;;;;;3.30;0.50;;;5.30;95.30;;;;;;5074620;28;20024;-77
2021/01/26 09:25:00;;;;;;;3.07;0.50;;;5.30;95.10;;;;;;5074606;28;20376;-79
2021/01/26 09:27:32;;;;;;;1.87;0.47;;;5.30;95.10;;;;;;5090145;28;20388;-78
2021/01/26 09:30:18;;;;;;;4.07;0.60;;;5.30;95.10;;;;;;5090120;28;20070;-78
2021/01/26 09:32:57;;;;;;;3.30;0.73;;;5.40;95.10;;;;;;5074273;28;20023;-74
2021/01/26 09:35:36;;;;;;;3.47;0.60;;;5.40;95.10;;;;;;5074535;28;20020;-74
2021/01/26 09:38:29;;;;;;;1.27;0.50;;;5.50;95.10;;;;;;5090163;28;20020;-74
2021/01/26 09:40:59;;;;;;;1.63;0.40;;;5.50;95.10;;;;;;5090576;28;20108;-74
2021/01/26 09:43:46;;;;;;;2.40;0.50;;;5.60;95.10;;;;;;5074352;28;20032;-74
2021/01/26 09:46:28;;;;;;;1.20;0.30;;;5.70;95.10;;;;;;5089292;28;20066;-74
2021/01/26 09:48:57;;;;;;;1.70;0.20;;;5.70;95.20;;;;;;5090019;28;20134;-74
2021/01/26 09:51:26;;;;;;;1.83;0.43;;;5.80;95.30;;;;;;5074398;28;20016;-74
2021/01/26 09:54:16;;;;;;;2.40;0.40;;;5.80;95.00;;;;;;5074965;28;20012;-74
2021/01/26 09:56:43;;;;;;;2.37;0.60;;;5.90;95.00;;;;;;5094633;28;20030;-74
2021/01/26 09:59:10;;;;;;;2.97;0.40;;;6.00;95.10;;;;;;5094005;28;20024;-74
2021/01/26 10:01:42;;;;;;;3.37;0.40;;;6.10;95.20;;;;;;5093285;28;20383;-74
2021/01/26 10:04:09;;;;;;;4.33;0.60;;;6.30;95.40;;;;;;5092681;28;20081;-76
2021/01/26 10:06:35;;;;;;;4.67;0.93;;;6.40;95.60;;;;;;5092787;28;20024;-74
2021/01/26 10:09:16;;;;;;;2.53;0.63;;;6.70;95.70;;;;;;5092986;28;20047;-74
2021/01/26 10:11:42;;;;;;;5.73;0.40;;;7.00;96.10;;;;;;5093942;28;20091;-74
2021/01/26 10:14:25;;;;;;;1.37;0.40;;;7.30;96.20;;;;;;5092742;28;20499;-74
2021/01/26 10:16:54;;;;;;;2.73;0.50;;;7.50;96.30;;;;;;5092732;28;20024;-73
2021/01/26 10:19:25;;;;;;;1.17;0.40;;;7.80;96.20;;;;;;5094098;28;20031;-73
2021/01/26 10:21:51;;;;;;;3.53;0.40;;;7.90;96.30;;;;;;5092484;28;20107;-74
2021/01/26 10:24:28;;;;;;;1.80;0.30;;;8.10;96.10;;;;;;5092667;28;20043;-74
2021/01/26 10:27:21;;;;;;;1.57;0.40;;;8.20;95.90;;;;;;5093756;28;20038;-73
2021/01/26 10:29:47;;;;;;;2.23;0.30;;;8.30;95.30;;;;;;5094080;28;20404;-76
2021/01/26 10:32:34;;;;;;;5.10;0.40;;;8.30;95.20;;;;;;5093613;28;20070;-75
2021/01/26 10:35:00;;;;;;;3.90;0.50;;;8.40;95.10;;;;;;5092692;28;20463;-74
2021/01/26 10:37:30;;;;;;;1.70;0.20;;;8.50;95.30;;;;;;5092858;28;20027;-74
2021/01/26 10:40:16;;;;;;;1.97;0.40;;;8.60;95.50;;;;;;5092439;28;20028;-75
2021/01/26 10:43:05;;;;;;;2.33;0.33;;;8.80;95.60;;;;;;5092557;28;20515;-74
2021/01/26 10:45:52;;;;;;;2.50;0.30;;;9.10;95.90;;;;;;5089851;28;20464;-75
2021/01/26 10:48:26;;;;;;;1.73;0.30;;;9.40;96.30;;;;;;5091690;28;20051;-74
2021/01/26 10:50:52;;;;;;;;;;;9.60;96.20;;;;;;5094107;28;20017;-74
2021/01/26 10:53:32;;;;;;;1.40;0.30;;;9.80;96.20;;;;;;5093391;28;19966;-74
2021/01/26 10:55:57;;;;;;;1.47;0.30;;;9.90;96.00;;;;;;5076522;28;20036;-75
2021/01/26 10:58:23;;;;;;;1.37;0.20;;;10.10;96.10;;;;;;5055409;28;20032;-74
2021/01/26 11:00:51;;;;;;;1.92;0.30;;;10.30;96.20;;;;;;5072075;28;20058;-74
2021/01/26 11:03:17;;;;;;;3.27;0.30;;;10.50;96.40;;;;;;5055140;28;20123;-75
2021/01/26 11:05:42;;;;;;;3.22;0.20;;;10.60;96.10;;;;;;5054988;28;20063;-75
2021/01/26 11:08:08;;;;;;;1.40;0.30;;;10.80;96.10;;;;;;5071921;28;20037;-74
2021/01/26 11:10:35;;;;;;;0.93;0.20;;;11.00;96.00;;;;;;5071235;28;20035;-73
2021/01/26 11:13:00;;;;;;;3.72;0.28;;;11.00;95.60;;;;;;5079927;28;20039;-75
2021/01/26 11:15:27;;;;;;;1.03;0.20;;;11.00;94.90;;;;;;5065200;28;20380;-75
2021/01/26 11:17:53;;;;;;;1.73;0.22;;;10.90;94.50;;;;;;5079027;28;20038;-75
2021/01/26 11:20:19;;;;;;;0.75;0.20;;;10.80;94.70;;;;;;5079550;28;20029;-75
2021/01/26 11:22:44;;;;;;;2.38;0.30;;;10.80;94.70;;;;;;5076274;28;20032;-75
2021/01/26 11:25:10;;;;;;;1.37;0.47;;;10.70;94.30;;;;;;5080065;28;20048;-76
2021/01/26 11:27:36;;;;;;;1.70;0.40;;;10.60;94.00;;;;;;5081176;28;20021;-74
2021/01/26 11:30:07;;;;;;;2.50;0.40;;;10.50;93.30;;;;;;5072885;28;20040;-74
2021/01/26 11:32:33;;;;;;;1.50;0.27;;;10.20;92.90;;;;;;5055071;28;20032;-74
2021/01/26 11:34:58;;;;;;;3.73;0.37;;;10.10;93.00;;;;;;5071791;28;20025;-75
2021/01/26 11:37:24;;;;;;;3.67;0.50;;;9.90;92.70;;;;;;5072912;28;20029;-74
2021/01/26 11:39:50;;;;;;;3.70;0.40;;;10.00;93.30;;;;;;5072764;28;20060;-74
2021/01/26 11:42:15;;;;;;;3.67;0.40;;;9.90;92.60;;;;;;5038399;28;20038;-74
2021/01/26 11:44:42;;;;;;;1.73;0.30;;;9.80;92.70;;;;;;5071409;28;20032;-74
2021/01/26 11:47:08;;;;;;;1.90;0.40;;;9.70;92.40;;;;;;5072511;28;20412;-74
2021/01/26 11:49:35;;;;;;;1.40;0.33;;;9.80;92.50;;;;;;5071690;28;20036;-75
2021/01/26 11:52:01;;;;;;;1.83;0.33;;;9.80;92.80;;;;;;5072562;28;20031;-74
2021/01/26 11:54:27;;;;;;;2.93;0.40;;;9.90;92.40;;;;;;5072518;28;20025;-74
2021/01/26 11:56:53;;;;;;;1.23;0.30;;;9.70;91.90;;;;;;5072814;28;20027;-74
2021/01/26 11:59:18;;;;;;;3.03;0.37;;;9.60;91.60;;;;;;5072858;28;20033;-74
2021/01/26 12:01:44;;;;;;;2.30;0.50;;;9.60;91.30;;;;;;5073016;28;20032;-74
2021/01/26 12:04:10;;;;;;;3.67;0.63;;;9.50;90.80;;;;;;5072866;28;20032;-76
2021/01/26 12:06:35;;;;;;;2.80;0.53;;;9.30;89.80;;;;;;5072584;28;20115;-73
2021/01/26 12:09:01;;;;;;;3.67;0.50;;;9.10;90.10;;;;;;5072989;28;20039;-74
2021/01/26 12:11:26;;;;;;;4.30;0.50;;;9.00;89.90;;;;;;5073850;28;20021;-74
2021/01/26 12:13:52;;;;;;;2.03;0.40;;;8.90;90.40;;;;;;5075909;28;20079;-75
2021/01/26 12:16:18;;;;;;;0.50;0.20;;;8.80;90.40;;;;;;5074931;28;20074;-77
2021/01/26 12:18:43;;;;;;;5.53;0.57;;;8.80;90.40;;;;;;5074629;28;20362;-75
2021/01/26 12:21:09;;;;;;;1.87;0.40;;;8.80;90.40;;;;;;5074644;28;20093;-75
2021/01/26 12:23:34;;;;;;;1.80;0.40;;;8.90;91.50;;;;;;5058256;28;20036;-75
2021/01/26 12:26:00;;;;;;;3.07;0.30;;;9.20;92.20;;;;;;5058114;28;20035;-76
2021/01/26 12:28:27;;;;;;;1.60;0.23;;;9.70;92.90;;;;;;5074795;28;20064;-76
2021/01/26 12:30:54;;;;;;;5.17;0.60;;;10.10;93.30;;;;;;5075840;28;20020;-76
2021/01/26 12:33:20;;;;;;;8.17;0.83;;;10.50;93.10;;;;;;5075849;28;20028;-76
2021/01/26 12:35:45;;;;;;;6.78;0.85;;;10.70;90.60;;;;;;5058442;28;20016;-75
2021/01/26 12:38:11;;;;;;;8.85;1.10;;;11.00;90.00;;;;;;5074344;28;20054;-75
2021/01/26 12:40:42;;;;;;;8.05;1.00;;;11.00;86.60;;;;;;5057651;28;20093;-75
2021/01/26 12:43:08;;;;;;;6.83;1.27;;;11.10;83.20;;;;;;5074302;28;20108;-73
2021/01/26 12:45:34;;;;;;;11.65;1.02;;;10.90;81.50;;;;;;5058115;28;20123;-73
2021/01/26 12:48:00;;;;;;;7.60;0.93;;;10.70;77.70;;;;;;5075203;28;20076;-74
2021/01/26 12:50:33;;;;;;;8.83;1.33;;;10.50;76.00;;;;;;5074135;28;20043;-74
2021/01/26 12:52:59;;;;;;;7.20;0.83;;;10.20;75.80;;;;;;5075234;28;20392;-74
2021/01/26 12:55:24;;;;;;;5.37;1.03;;;9.90;75.90;;;;;;5075159;28;20028;-73
2021/01/26 12:57:51;;;;;;;10.03;0.80;;;9.70;75.40;;;;;;5075274;28;20021;-73
2021/01/26 13:00:18;;;;;;;4.20;0.73;;;9.50;74.50;;;;;;5057126;28;20025;-73
2021/01/26 13:02:44;;;;;;;4.00;0.70;;;9.30;75.40;;;;;;5075497;28;20388;-74
2021/01/26 13:05:12;;;;;;;5.47;0.80;;;9.10;75.30;;;;;;5074997;28;20025;-74
2021/01/26 13:07:38;;;;;;;4.67;0.80;;;9.00;75.20;;;;;;5074824;28;20029;-74
2021/01/26 13:10:06;;;;;;;7.33;0.90;;;9.00;75.90;;;;;;5073902;28;20035;-75
2021/01/26 13:12:32;;;;;;;4.30;0.70;;;8.80;76.10;;;;;;5075094;28;20016;-75
2021/01/26 13:14:57;;;;;;;7.33;0.63;;;8.80;76.50;;;;;;5074982;28;20081;-75
2021/01/26 13:17:23;;;;;;;2.60;0.40;;;8.60;77.60;;;;;;5073755;28;20112;-75
2021/01/26 13:19:49;;;;;;;3.37;0.80;;;8.70;77.50;;;;;;5073438;28;20034;-74
2021/01/26 13:22:15;;;;;;;1.63;0.40;;;8.80;77.50;;;;;;5073251;28;20150;-74
2021/01/26 13:24:40;;;;;;;2.13;0.50;;;9.00;78.20;;;;;;5056501;28;20059;-74
2021/01/26 13:27:06;;;;;;;3.73;0.50;;;9.30;77.70;;;;;;5073558;28;20464;-74
2021/01/26 13:29:32;;;;;;;4.10;0.50;;;9.50;77.00;;;;;;5056870;28;20078;-74
2021/01/26 13:31:58;;;;;;;2.90;0.40;;;9.70;75.00;;;;;;5073334;28;20033;-78